Time;durP1;ratioP1;P1;durP2;ratioP2;P2;SDS_P1;SDS_P2;PMS_P1;PMS_P2;Temp;Humidity;BMP_temperature;BMP_pressure;BME280_temperature;BME280_humidity;BME280_pressure;Samples;Min_cycle;Max_cycle;Signal;HPM_P1;HPM_P2
2021/06/15 00:00:16;;;;;;;14.33;10.00;;;18.90;99.90;;;;;;5132029;28;20626;-63
2021/06/15 00:02:43;;;;;;;15.83;9.57;;;18.80;99.90;;;;;;5132247;28;20248;-64
2021/06/15 00:05:11;;;;;;;13.50;9.50;;;18.70;99.90;;;;;;5132162;28;20203;-64
2021/06/15 00:07:38;;;;;;;14.50;9.23;;;18.70;99.90;;;;;;5132351;28;20223;-63
2021/06/15 00:10:07;;;;;;;16.67;9.23;;;18.60;99.90;;;;;;5134589;27;20784;-63
2021/06/15 00:12:35;;;;;;;13.30;9.23;;;18.50;99.90;;;;;;5136297;27;20232;-63
2021/06/15 00:15:03;;;;;;;15.10;10.23;;;18.50;99.90;;;;;;5135703;27;20206;-63
2021/06/15 00:17:29;;;;;;;13.67;9.73;;;18.40;99.90;;;;;;5135859;27;20226;-63
2021/06/15 00:19:56;;;;;;;12.50;9.47;;;18.40;99.90;;;;;;5135884;27;20202;-63
2021/06/15 00:22:23;;;;;;;12.63;9.63;;;18.30;99.90;;;;;;5135404;27;20558;-62
2021/06/15 00:24:49;;;;;;;12.83;8.83;;;18.20;99.90;;;;;;5135841;27;20203;-63
2021/06/15 00:27:16;;;;;;;11.53;9.23;;;18.20;99.90;;;;;;5135541;27;20218;-63
2021/06/15 00:29:44;;;;;;;15.10;9.97;;;18.20;99.90;;;;;;5135343;27;20252;-63
2021/06/15 00:32:11;;;;;;;14.97;10.47;;;18.10;99.90;;;;;;5135639;27;20207;-63
2021/06/15 00:34:37;;;;;;;18.10;11.57;;;18.10;99.90;;;;;;5135815;27;20259;-63
2021/06/15 00:37:04;;;;;;;12.73;10.17;;;18.00;99.90;;;;;;5135375;27;20222;-63
2021/06/15 00:39:31;;;;;;;15.67;11.00;;;18.00;99.90;;;;;;5135472;27;20621;-62
2021/06/15 00:41:57;;;;;;;15.57;10.70;;;17.90;99.90;;;;;;5135614;27;20199;-63
2021/06/15 00:44:24;;;;;;;14.10;10.20;;;17.80;99.90;;;;;;5135557;27;20226;-63
2021/06/15 00:46:53;;;;;;;14.63;10.67;;;17.80;99.90;;;;;;5135341;27;20621;-62
2021/06/15 00:49:25;;;;;;;13.73;10.23;;;17.80;99.90;;;;;;5135182;27;20199;-63
2021/06/15 00:51:52;;;;;;;17.57;10.50;;;17.70;99.90;;;;;;5135064;27;20211;-63
2021/06/15 00:54:19;;;;;;;20.40;12.17;;;17.70;99.90;;;;;;5135074;27;20665;-62
2021/06/15 00:56:45;;;;;;;17.07;11.10;;;17.70;99.90;;;;;;5134848;27;20223;-63
2021/06/15 00:59:12;;;;;;;15.90;11.50;;;17.70;99.90;;;;;;5135216;27;20260;-63
2021/06/15 01:01:39;;;;;;;14.20;10.80;;;17.60;99.90;;;;;;5135018;27;20207;-63
2021/06/15 01:04:07;;;;;;;15.73;11.87;;;17.60;99.90;;;;;;5135202;27;20202;-63
2021/06/15 01:06:40;;;;;;;13.37;10.97;;;17.60;99.90;;;;;;5134892;27;20261;-63
2021/06/15 01:09:15;;;;;;;21.27;12.90;;;17.50;99.90;;;;;;5134820;27;20199;-63
2021/06/15 01:11:51;;;;;;;16.13;11.13;;;17.40;99.90;;;;;;5134826;27;20257;-63
2021/06/15 01:14:29;;;;;;;15.17;11.73;;;17.40;99.90;;;;;;5135083;27;20225;-62
2021/06/15 01:16:59;;;;;;;18.30;11.97;;;17.40;99.90;;;;;;5134603;27;20644;-63
2021/06/15 01:19:41;;;;;;;18.77;12.13;;;17.30;99.90;;;;;;5134435;27;20202;-62
2021/06/15 01:22:15;;;;;;;18.40;12.60;;;17.30;99.90;;;;;;5134448;27;20214;-63
2021/06/15 01:24:52;;;;;;;15.47;11.70;;;17.30;99.90;;;;;;5134728;27;20252;-63
2021/06/15 01:27:43;;;;;;;16.30;11.63;;;17.20;99.90;;;;;;5136081;27;20226;-63
2021/06/15 01:30:12;;;;;;;17.80;12.23;;;17.20;99.90;;;;;;5135128;27;20211;-63
2021/06/15 01:32:40;;;;;;;20.37;13.73;;;17.20;99.90;;;;;;5134637;27;20260;-63
2021/06/15 01:35:09;;;;;;;21.13;13.33;;;17.10;99.90;;;;;;5135086;27;20281;-63
2021/06/15 01:37:40;;;;;;;20.70;13.07;;;17.10;99.90;;;;;;5135364;27;20218;-63
2021/06/15 01:40:14;;;;;;;17.80;13.63;;;17.10;99.90;;;;;;5135145;27;20226;-63
2021/06/15 01:42:44;;;;;;;21.17;14.50;;;17.00;99.90;;;;;;5134032;27;20207;-62
2021/06/15 01:45:16;;;;;;;18.77;14.60;;;17.00;99.90;;;;;;5133936;27;20681;-63
2021/06/15 01:47:50;;;;;;;19.27;14.40;;;17.00;99.90;;;;;;5134061;27;20562;-62
2021/06/15 01:50:20;;;;;;;18.57;14.17;;;17.00;99.90;;;;;;5133883;27;20202;-63
2021/06/15 01:52:50;;;;;;;20.60;13.53;;;16.90;99.90;;;;;;5133842;27;20297;-62
2021/06/15 01:55:17;;;;;;;15.93;12.90;;;16.90;99.90;;;;;;5133946;27;20724;-63
2021/06/15 01:57:46;;;;;;;24.33;13.60;;;16.90;99.90;;;;;;5134031;27;20229;-62
2021/06/15 02:00:14;;;;;;;21.30;14.67;;;16.90;99.90;;;;;;5133654;27;20199;-62
2021/06/15 02:02:42;;;;;;;19.10;14.00;;;16.90;99.90;;;;;;5134066;27;20264;-63
2021/06/15 02:05:12;;;;;;;23.47;14.37;;;16.80;99.90;;;;;;5133712;27;20210;-62
2021/06/15 02:07:44;;;;;;;20.27;15.87;;;16.80;99.90;;;;;;5133507;27;20299;-63
2021/06/15 02:10:13;;;;;;;23.87;16.80;;;16.80;99.90;;;;;;5133684;27;20198;-63
2021/06/15 02:12:44;;;;;;;22.23;17.93;;;16.80;99.90;;;;;;5133590;27;20671;-63
2021/06/15 02:15:15;;;;;;;26.77;17.97;;;16.80;99.90;;;;;;5133633;27;20207;-63
2021/06/15 02:17:45;;;;;;;25.07;18.40;;;16.80;99.90;;;;;;5133458;27;20222;-64
2021/06/15 02:20:14;;;;;;;27.40;18.07;;;16.80;99.90;;;;;;5133506;27;20202;-62
2021/06/15 02:22:44;;;;;;;26.87;18.97;;;16.80;99.90;;;;;;5133491;27;20217;-63
2021/06/15 02:25:12;;;;;;;29.90;19.17;;;16.80;99.90;;;;;;5133693;27;20221;-63
2021/06/15 02:27:40;;;;;;;25.83;19.70;;;16.80;99.90;;;;;;5133467;27;20227;-63
2021/06/15 02:30:08;;;;;;;25.97;19.73;;;16.80;99.90;;;;;;5133269;27;20199;-63
2021/06/15 02:32:37;;;;;;;26.23;19.83;;;16.80;99.90;;;;;;5132534;27;20612;-63
2021/06/15 02:35:08;;;;;;;27.27;20.07;;;16.80;99.90;;;;;;5133535;27;20207;-63
2021/06/15 02:37:40;;;;;;;32.77;21.10;;;16.80;99.90;;;;;;5133264;27;20230;-63
2021/06/15 02:40:08;;;;;;;27.40;19.73;;;16.80;99.90;;;;;;5133278;27;20294;-63
2021/06/15 02:42:41;;;;;;;30.10;20.87;;;16.80;99.90;;;;;;5133341;27;20249;-63
2021/06/15 02:45:09;;;;;;;26.10;19.57;;;16.70;99.90;;;;;;5133060;27;20294;-63
2021/06/15 02:47:38;;;;;;;27.50;21.80;;;16.80;99.90;;;;;;5133240;27;20640;-62
2021/06/15 02:50:07;;;;;;;29.87;21.33;;;16.80;99.90;;;;;;5132934;27;20589;-62
2021/06/15 02:52:39;;;;;;;31.93;20.50;;;16.80;99.90;;;;;;5133038;27;20297;-63
2021/06/15 02:55:09;;;;;;;29.07;21.63;;;16.80;99.90;;;;;;5133073;27;20199;-62
2021/06/15 02:57:35;;;;;;;28.53;21.30;;;16.80;99.90;;;;;;5132546;28;20230;-62
2021/06/15 03:00:07;;;;;;;32.07;21.93;;;16.80;99.90;;;;;;5132969;28;20624;-62
2021/06/15 03:02:33;;;;;;;30.83;21.90;;;16.70;99.90;;;;;;5133099;28;20268;-62
2021/06/15 03:05:01;;;;;;;31.70;21.03;;;16.70;99.90;;;;;;5132836;28;20251;-62
2021/06/15 03:07:32;;;;;;;32.97;21.60;;;16.70;99.90;;;;;;5132747;28;20215;-63
2021/06/15 03:10:01;;;;;;;28.63;21.77;;;16.70;99.90;;;;;;5132773;28;20203;-62
2021/06/15 03:12:29;;;;;;;34.70;21.67;;;16.70;99.90;;;;;;5133061;28;20259;-63
2021/06/15 03:15:02;;;;;;;30.57;21.00;;;16.70;99.90;;;;;;5132693;28;20693;-63
2021/06/15 03:17:32;;;;;;;31.43;20.97;;;16.70;99.90;;;;;;5132641;28;20763;-63
2021/06/15 03:20:04;;;;;;;30.57;22.00;;;16.60;1.00;;;;;;5132629;28;20207;-63
2021/06/15 03:22:34;;;;;;;29.70;22.17;;;16.60;1.00;;;;;;5132456;28;20743;-64
2021/06/15 03:25:04;;;;;;;34.23;21.97;;;16.60;1.00;;;;;;5132843;28;20199;-64
2021/06/15 03:27:32;;;;;;;30.07;21.60;;;16.60;1.00;;;;;;5132793;28;20246;-63
2021/06/15 03:30:06;;;;;;;33.40;21.90;;;16.50;1.00;;;;;;5132515;28;20210;-63
2021/06/15 03:32:34;;;;;;;35.17;22.70;;;16.50;1.00;;;;;;5132866;28;20206;-64
2021/06/15 03:35:03;;;;;;;32.43;22.83;;;16.50;1.00;;;;;;5132498;28;20260;-64
2021/06/15 03:37:31;;;;;;;31.77;22.47;;;16.50;1.00;;;;;;5132406;28;20276;-63
2021/06/15 03:40:00;;;;;;;33.07;22.83;;;16.50;1.00;;;;;;5132459;28;20664;-64
2021/06/15 03:42:33;;;;;;;37.87;24.87;;;16.50;1.00;;;;;;5132610;28;20206;-64
2021/06/15 03:45:02;;;;;;;37.03;25.50;;;16.50;1.00;;;;;;5136929;27;20210;-63
2021/06/15 03:47:31;;;;;;;30.87;25.00;;;16.40;1.00;;;;;;5136159;27;20260;-63
2021/06/15 03:49:59;;;;;;;33.87;23.90;;;16.50;1.00;;;;;;5136496;27;20213;-63
2021/06/15 03:52:31;;;;;;;31.43;21.50;;;16.40;1.00;;;;;;5136220;27;20736;-64
2021/06/15 03:54:58;;;;;;;32.93;22.90;;;16.40;1.00;;;;;;5136281;27;20716;-64
2021/06/15 03:57:27;;;;;;;31.83;22.87;;;16.40;1.00;;;;;;5136205;27;20227;-63
2021/06/15 03:59:55;;;;;;;34.00;22.40;;;16.40;1.00;;;;;;5136341;27;20199;-64
2021/06/15 04:02:23;;;;;;;33.17;22.40;;;16.40;1.00;;;;;;5136107;27;20202;-62
2021/06/15 04:04:52;;;;;;;34.83;24.03;;;16.40;1.00;;;;;;5136276;27;20255;-63
2021/06/15 04:07:21;;;;;;;31.13;22.87;;;16.40;1.00;;;;;;5136054;27;20699;-63
2021/06/15 04:09:51;;;;;;;33.80;23.73;;;16.40;1.00;;;;;;5136169;27;20207;-63
2021/06/15 04:12:20;;;;;;;34.27;23.40;;;16.30;1.00;;;;;;5135919;27;20203;-63
2021/06/15 04:14:49;;;;;;;30.87;21.30;;;16.40;1.00;;;;;;5135797;27;20211;-63
2021/06/15 04:17:19;;;;;;;29.90;21.13;;;16.50;1.00;;;;;;5134474;27;20352;-64
2021/06/15 04:19:49;;;;;;;32.13;21.23;;;16.50;1.00;;;;;;5136051;27;20203;-64
2021/06/15 04:22:17;;;;;;;28.07;20.63;;;16.60;1.00;;;;;;5133892;27;20895;-63
2021/06/15 04:24:47;;;;;;;28.63;21.20;;;16.60;1.00;;;;;;5135686;27;20608;-63
2021/06/15 04:27:20;;;;;;;26.97;20.47;;;16.50;1.00;;;;;;5135637;27;20226;-63
2021/06/15 04:29:47;;;;;;;28.97;22.00;;;16.50;1.00;;;;;;5135490;27;20633;-63
2021/06/15 04:32:18;;;;;;;31.10;20.57;;;16.40;1.00;;;;;;5132581;27;20337;-63
2021/06/15 04:34:49;;;;;;;30.50;20.73;;;16.40;1.00;;;;;;5130541;27;20294;-63
2021/06/15 04:37:17;;;;;;;29.40;20.97;;;16.40;1.00;;;;;;5135164;27;20264;-63
2021/06/15 04:39:48;;;;;;;26.63;19.07;;;16.50;1.00;;;;;;5134956;27;20232;-69
2021/06/15 04:42:24;;;;;;;30.07;20.33;;;16.50;1.00;;;;;;5135294;27;20199;-70
2021/06/15 04:44:52;;;;;;;26.63;18.83;;;16.60;1.00;;;;;;5135209;27;20255;-69
2021/06/15 04:47:27;;;;;;;30.07;20.03;;;16.70;1.00;;;;;;5135133;27;20227;-69
2021/06/15 04:49:58;;;;;;;26.80;18.70;;;16.80;1.00;;;;;;5135372;27;20244;-71
2021/06/15 04:52:27;;;;;;;27.27;18.50;;;16.80;1.00;;;;;;5135579;27;20210;-70
2021/06/15 04:54:55;;;;;;;28.83;18.80;;;16.80;1.00;;;;;;5134814;27;20334;-70
2021/06/15 04:57:26;;;;;;;29.03;19.93;;;16.90;1.00;;;;;;5135502;27;20233;-69
2021/06/15 04:59:55;;;;;;;28.10;19.37;;;16.90;1.00;;;;;;5135049;27;20210;-70
2021/06/15 05:02:23;;;;;;;28.23;19.97;;;16.90;1.00;;;;;;5134770;27;20289;-70
2021/06/15 05:04:50;;;;;;;27.93;19.83;;;17.00;1.00;;;;;;5134747;27;20260;-69
2021/06/15 05:07:19;;;;;;;27.20;19.90;;;17.10;1.00;;;;;;5134953;27;20227;-71
2021/06/15 05:09:49;;;;;;;27.47;19.07;;;17.30;1.00;;;;;;5135457;27;20227;-70
2021/06/15 05:12:18;;;;;;;28.90;19.93;;;17.50;1.00;;;;;;5134875;27;20207;-70
2021/06/15 05:14:47;;;;;;;32.10;19.93;;;17.50;1.00;;;;;;5135294;27;20210;-69
2021/06/15 05:17:15;;;;;;;29.60;19.13;;;17.50;1.00;;;;;;5134255;27;20628;-70
2021/06/15 05:19:42;;;;;;;26.83;19.20;;;17.40;1.00;;;;;;5134331;27;20198;-69
2021/06/15 05:22:15;;;;;;;28.30;18.70;;;17.40;1.00;;;;;;5134505;27;20214;-69
2021/06/15 05:24:49;;;;;;;28.90;19.07;;;17.50;1.00;;;;;;5134766;27;20259;-70
2021/06/15 05:27:18;;;;;;;26.37;18.37;;;17.60;1.00;;;;;;5134811;27;20226;-70
2021/06/15 05:29:46;;;;;;;30.57;19.23;;;17.60;1.00;;;;;;5134270;27;20222;-69
2021/06/15 05:32:14;;;;;;;25.23;18.27;;;17.60;99.90;;;;;;5131655;27;20215;-68
2021/06/15 05:34:41;;;;;;;23.27;17.40;;;17.60;99.90;;;;;;5129509;27;20198;-68
2021/06/15 05:37:10;;;;;;;27.23;18.57;;;17.70;99.90;;;;;;5134218;27;20252;-68
2021/06/15 05:39:37;;;;;;;28.03;18.83;;;17.60;99.90;;;;;;5134395;27;20298;-68
2021/06/15 05:42:05;;;;;;;29.70;19.17;;;17.60;1.00;;;;;;5134195;27;20259;-68
2021/06/15 05:44:34;;;;;;;27.73;18.20;;;17.50;1.00;;;;;;5131100;27;20210;-66
2021/06/15 05:47:03;;;;;;;26.57;18.63;;;17.60;1.00;;;;;;5300342;22;20210;-70
2021/06/15 05:49:29;;;;;;;28.37;18.93;;;17.70;1.00;;;;;;5113239;28;20227;-69
2021/06/15 05:51:59;;;;;;;29.83;18.50;;;17.80;99.90;;;;;;5113161;28;20204;-69
2021/06/15 05:54:26;;;;;;;27.10;18.27;;;17.90;99.90;;;;;;5113162;28;20848;-69
2021/06/15 05:56:53;;;;;;;27.57;18.27;;;18.10;99.90;;;;;;5112587;28;20262;-68
2021/06/15 05:59:19;;;;;;;21.57;17.87;;;18.20;99.90;;;;;;5113033;28;20235;-68
2021/06/15 06:01:46;;;;;;;25.33;19.00;;;18.20;99.90;;;;;;5113002;28;20207;-67
2021/06/15 06:04:17;;;;;;;29.83;18.80;;;18.30;99.90;;;;;;5104940;28;20204;-68
2021/06/15 06:09:40;;;;;;;33.10;21.73;;;18.30;99.90;;;;;;5112796;28;20230;-68
2021/06/15 06:12:08;;;;;;;31.33;19.27;;;18.30;99.90;;;;;;5092079;28;20287;-67
2021/06/15 06:14:35;;;;;;;28.73;18.37;;;18.30;99.90;;;;;;5090882;28;20200;-68
2021/06/15 06:17:02;;;;;;;26.57;18.63;;;18.30;99.90;;;;;;5092187;28;20236;-68
2021/06/15 06:19:31;;;;;;;26.20;17.57;;;18.20;99.90;;;;;;5071860;28;20200;-68
2021/06/15 06:21:58;;;;;;;24.30;18.37;;;18.10;99.90;;;;;;5071943;28;20209;-67
2021/06/15 06:24:25;;;;;;;23.77;17.80;;;18.10;99.90;;;;;;5071867;28;20213;-68
2021/06/15 06:26:52;;;;;;;28.97;18.10;;;18.20;99.90;;;;;;5071846;28;20663;-67
2021/06/15 06:29:19;;;;;;;26.57;18.50;;;18.40;99.90;;;;;;5071687;28;20705;-68
2021/06/15 06:31:46;;;;;;;25.33;18.60;;;18.30;99.90;;;;;;5071777;28;20693;-68
2021/06/15 06:34:12;;;;;;;30.53;18.47;;;18.40;99.90;;;;;;5071600;28;20299;-68
2021/06/15 06:36:40;;;;;;;27.37;18.17;;;18.40;99.90;;;;;;5071524;28;20232;-68
2021/06/15 06:39:09;;;;;;;29.67;19.50;;;18.50;99.90;;;;;;5071927;28;20266;-70
2021/06/15 06:41:38;;;;;;;27.20;18.70;;;18.50;99.90;;;;;;5072060;28;20205;-68
2021/06/15 06:44:05;;;;;;;27.67;19.13;;;18.60;99.90;;;;;;5071743;28;20213;-67
2021/06/15 06:46:32;;;;;;;32.07;20.13;;;18.60;99.90;;;;;;5071222;28;20575;-70
2021/06/15 06:48:59;;;;;;;31.23;21.33;;;18.70;99.90;;;;;;5071372;28;20260;-69
2021/06/15 06:51:25;;;;;;;31.87;19.27;;;18.60;99.90;;;;;;5071554;28;20219;-64
2021/06/15 06:53:53;;;;;;;26.90;18.93;;;18.70;99.90;;;;;;5071705;28;20254;-64
2021/06/15 06:56:20;;;;;;;29.10;17.80;;;18.90;99.90;;;;;;5071228;28;20205;-63
2021/06/15 06:58:47;;;;;;;26.67;19.40;;;19.10;99.90;;;;;;5071394;28;20201;-63
2021/06/15 07:01:15;;;;;;;26.73;18.50;;;19.20;99.90;;;;;;5071057;28;20211;-64
2021/06/15 07:03:41;;;;;;;26.17;18.97;;;19.30;99.90;;;;;;5071848;28;20209;-63
2021/06/15 07:06:08;;;;;;;28.20;18.57;;;19.30;99.90;;;;;;5071074;28;20211;-66
2021/06/15 07:08:35;;;;;;;26.87;17.70;;;19.30;99.90;;;;;;5071382;28;20247;-64
2021/06/15 07:11:03;;;;;;;23.57;17.30;;;19.50;99.90;;;;;;5071291;28;20209;-63
2021/06/15 07:13:30;;;;;;;24.60;17.70;;;19.60;99.90;;;;;;5071294;28;20231;-64
2021/06/15 07:15:57;;;;;;;22.57;16.20;;;19.70;99.90;;;;;;5070625;28;20589;-64
2021/06/15 07:18:23;;;;;;;26.37;18.90;;;19.80;99.90;;;;;;5072433;28;20713;-63
2021/06/15 07:20:50;;;;;;;27.83;18.50;;;19.70;99.90;;;;;;5075110;28;20677;-63
2021/06/15 07:23:17;;;;;;;27.70;16.90;;;19.90;99.90;;;;;;5075309;28;20209;-62
2021/06/15 07:25:44;;;;;;;24.83;17.60;;;20.10;99.90;;;;;;5075210;28;20212;-63
2021/06/15 07:28:12;;;;;;;26.10;16.73;;;20.30;99.90;;;;;;5075027;28;20286;-63
2021/06/15 07:30:39;;;;;;;22.53;17.17;;;20.50;99.90;;;;;;5074677;28;20225;-64
2021/06/15 07:33:05;;;;;;;27.00;17.37;;;20.40;99.90;;;;;;5075168;28;20200;-64
2021/06/15 07:35:32;;;;;;;26.10;17.17;;;20.30;99.90;;;;;;5074960;28;20213;-65
2021/06/15 07:37:59;;;;;;;23.83;16.80;;;20.50;99.90;;;;;;5074884;28;20258;-64
2021/06/15 07:40:26;;;;;;;24.53;17.30;;;20.50;99.90;;;;;;5074948;28;20201;-64
2021/06/15 07:42:54;;;;;;;27.40;16.57;;;20.20;99.90;;;;;;5074735;28;20212;-65
2021/06/15 07:45:23;;;;;;;23.17;16.70;;;20.30;99.90;;;;;;5074387;28;20209;-66
2021/06/15 07:47:50;;;;;;;29.20;17.00;;;20.50;99.90;;;;;;5112456;23;20300;-66
2021/06/15 07:50:17;;;;;;;26.23;16.23;;;20.60;99.90;;;;;;5094816;28;20253;-65
2021/06/15 07:52:45;;;;;;;25.77;17.73;;;20.50;99.90;;;;;;5095069;28;20581;-65
2021/06/15 07:55:14;;;;;;;23.83;16.17;;;20.50;99.90;;;;;;5094737;28;20204;-64
2021/06/15 07:57:42;;;;;;;22.63;16.93;;;20.60;99.90;;;;;;5107195;28;20219;-65
2021/06/15 08:00:11;;;;;;;23.17;16.27;;;20.50;99.90;;;;;;5115198;28;20233;-64
2021/06/15 08:02:39;;;;;;;27.23;16.43;;;20.60;99.90;;;;;;5115221;28;20207;-63
2021/06/15 08:05:06;;;;;;;20.73;15.27;;;20.90;99.90;;;;;;5115030;28;20212;-64
2021/06/15 08:07:34;;;;;;;23.37;15.57;;;21.30;99.90;;;;;;5115056;28;20631;-65
2021/06/15 08:10:00;;;;;;;21.77;15.47;;;21.60;99.90;;;;;;5114712;28;20219;-65
2021/06/15 08:12:27;;;;;;;20.43;13.37;;;21.90;99.90;;;;;;5116052;28;20265;-69
2021/06/15 08:14:54;;;;;;;29.20;15.20;;;21.90;99.90;;;;;;5115755;28;20579;-69
2021/06/15 08:17:20;;;;;;;25.60;14.70;;;22.30;99.90;;;;;;5115397;28;20632;-67
2021/06/15 08:19:49;;;;;;;19.30;13.77;;;22.50;99.90;;;;;;5116551;28;20281;-68
2021/06/15 08:22:15;;;;;;;18.53;13.83;;;22.40;99.90;;;;;;5115155;28;20211;-68
2021/06/15 08:24:42;;;;;;;20.10;12.67;;;22.60;99.90;;;;;;5114639;28;20199;-69
2021/06/15 08:32:12;;;;;;;19.43;13.23;;;22.20;99.90;;;;;;5072102;28;20221;-68
2021/06/15 08:34:39;;;;;;;17.70;12.00;;;22.00;99.90;;;;;;5073798;28;20208;-69
2021/06/15 08:37:07;;;;;;;19.50;14.17;;;21.80;99.90;;;;;;5073822;28;20233;-72
2021/06/15 08:39:33;;;;;;;20.70;13.37;;;21.60;99.90;;;;;;5073940;28;20229;-69
2021/06/15 08:42:00;;;;;;;18.07;13.83;;;21.80;99.90;;;;;;5073520;28;20254;-70
2021/06/15 08:44:27;;;;;;;21.37;13.33;;;21.90;99.90;;;;;;5073974;28;20217;-69
2021/06/15 08:46:54;;;;;;;21.40;15.13;;;21.90;99.90;;;;;;5073501;28;20228;-70
2021/06/15 08:49:22;;;;;;;21.67;14.60;;;21.80;99.90;;;;;;5073974;28;20201;-70
2021/06/15 08:51:49;;;;;;;24.63;14.57;;;21.80;99.90;;;;;;5073500;28;20205;-70
2021/06/15 08:54:19;;;;;;;18.77;12.33;;;21.70;99.90;;;;;;5073620;28;20666;-69
2021/06/15 08:56:46;;;;;;;18.03;12.40;;;21.80;99.90;;;;;;5073265;28;20724;-68
2021/06/15 08:59:19;;;;;;;17.97;12.07;;;21.90;99.90;;;;;;5054547;28;20226;-69
2021/06/15 09:01:47;;;;;;;16.23;12.67;;;21.90;99.90;;;;;;5053712;28;20256;-69
2021/06/15 09:04:14;;;;;;;21.97;13.33;;;22.10;99.90;;;;;;5053224;28;20224;-70
2021/06/15 09:06:41;;;;;;;23.83;13.90;;;22.30;99.90;;;;;;5053457;28;20686;-68
2021/06/15 09:09:08;;;;;;;18.77;12.33;;;22.40;99.90;;;;;;5053536;28;20205;-68
2021/06/15 09:11:55;;;;;;;19.33;11.83;;;22.60;99.90;;;;;;5053092;28;20694;-69
2021/06/15 09:14:44;;;;;;;18.13;12.20;;;23.00;99.90;;;;;;5053250;28;20205;-67
2021/06/15 09:17:12;;;;;;;19.87;13.87;;;23.20;99.90;;;;;;5053288;28;20604;-67
2021/06/15 09:19:41;;;;;;;15.83;11.97;;;23.10;99.90;;;;;;5053034;28;20218;-68
2021/06/15 09:22:21;;;;;;;18.47;13.27;;;22.50;99.90;;;;;;5052784;28;20740;-67
2021/06/15 09:24:48;;;;;;;19.50;13.57;;;22.60;99.90;;;;;;5052697;28;20251;-69
2021/06/15 09:27:16;;;;;;;17.43;13.20;;;22.50;99.90;;;;;;5052959;28;20218;-69
2021/06/15 09:29:48;;;;;;;15.60;10.80;;;22.40;99.90;;;;;;5053241;28;20252;-69
2021/06/15 09:32:19;;;;;;;15.03;10.07;;;22.30;99.90;;;;;;5032980;28;20679;-68
2021/06/15 09:34:55;;;;;;;11.27;7.57;;;22.40;99.90;;;;;;5035340;28;20213;-67
2021/06/15 09:37:57;;;;;;;11.53;8.13;;;22.60;99.90;;;;;;5037284;28;20234;-66
2021/06/15 09:40:26;;;;;;;12.70;9.00;;;22.80;99.90;;;;;;5037145;28;20233;-69
2021/06/15 09:43:00;;;;;;;12.07;8.00;;;22.90;99.90;;;;;;5042244;28;20210;-70
2021/06/15 09:45:54;;;;;;;14.13;8.93;;;23.30;99.90;;;;;;5047308;28;20229;-71
2021/06/15 09:48:29;;;;;;;12.93;8.07;;;23.60;99.90;;;;;;5032527;28;20229;-72
2021/06/15 09:50:59;;;;;;;18.90;9.13;;;23.80;99.90;;;;;;5033752;28;20716;-70
2021/06/15 09:53:28;;;;;;;10.63;6.97;;;24.20;99.90;;;;;;5032651;28;20213;-70
2021/06/15 09:55:57;;;;;;;7.23;5.23;;;24.10;99.90;;;;;;5032369;28;20198;-69
2021/06/15 09:58:45;;;;;;;9.10;5.30;;;24.30;99.90;;;;;;5032325;28;20233;-70
2021/06/15 10:01:22;;;;;;;10.63;5.87;;;24.00;99.90;;;;;;5032174;28;20233;-68
2021/06/15 10:04:08;;;;;;;10.77;6.23;;;23.30;99.90;;;;;;5032440;28;20266;-66
2021/06/15 10:06:34;;;;;;;9.17;6.23;;;23.00;99.90;;;;;;5032534;28;20210;-70
2021/06/15 10:09:09;;;;;;;9.83;5.20;;;23.20;99.90;;;;;;5032411;28;20893;-69
2021/06/15 10:11:37;;;;;;;12.13;3.90;;;23.10;99.90;;;;;;5032202;28;20202;-69
2021/06/15 10:14:05;;;;;;;6.37;4.60;;;23.20;99.90;;;;;;5032265;28;20264;-68
2021/06/15 10:16:32;;;;;;;10.30;5.97;;;23.50;99.90;;;;;;5031914;28;20206;-71
2021/06/15 10:19:00;;;;;;;10.70;7.07;;;23.70;99.90;;;;;;5032293;28;20206;-68
2021/06/15 10:21:27;;;;;;;8.97;5.93;;;23.20;99.90;;;;;;5031506;28;20218;-72
2021/06/15 10:23:54;;;;;;;6.77;5.03;;;22.90;99.90;;;;;;5032238;28;20206;-69
2021/06/15 10:26:21;;;;;;;10.07;4.63;;;22.50;99.90;;;;;;5031529;28;20245;-70
2021/06/15 10:28:48;;;;;;;8.73;4.77;;;22.50;99.90;;;;;;5032047;28;20695;-70
2021/06/15 10:31:16;;;;;;;8.73;7.07;;;22.60;99.90;;;;;;5044059;28;20205;-69
2021/06/15 10:33:43;;;;;;;8.00;5.63;;;22.90;99.90;;;;;;5051925;28;20587;-69
2021/06/15 10:36:10;;;;;;;10.80;7.80;;;23.10;99.90;;;;;;5052053;28;20205;-68
2021/06/15 10:38:45;;;;;;;8.27;6.40;;;23.20;99.90;;;;;;5056113;28;20236;-67
2021/06/15 10:41:23;;;;;;;9.07;6.47;;;23.30;99.90;;;;;;5071755;28;20232;-67
2021/06/15 10:43:57;;;;;;;10.37;6.63;;;22.90;99.90;;;;;;5071687;28;20208;-68
2021/06/15 10:46:30;;;;;;;9.73;6.50;;;22.90;99.90;;;;;;5052299;28;20208;-68
2021/06/15 10:49:03;;;;;;;5.47;4.03;;;23.00;99.90;;;;;;5051738;28;20217;-68
2021/06/15 10:51:36;;;;;;;6.73;5.30;;;23.10;99.90;;;;;;5051123;28;20724;-66
2021/06/15 10:54:25;;;;;;;11.77;6.33;;;23.40;99.90;;;;;;5051035;28;20589;-68
2021/06/15 10:57:19;;;;;;;8.20;3.90;;;23.60;99.90;;;;;;5051071;28;20674;-66
2021/06/15 11:00:00;;;;;;;5.60;3.57;;;23.60;99.90;;;;;;5051346;28;20238;-66
2021/06/15 11:02:30;;;;;;;5.57;3.30;;;23.90;99.90;;;;;;5051591;28;20205;-66
2021/06/15 11:04:57;;;;;;;8.90;4.90;;;24.10;99.90;;;;;;5051634;28;20612;-67
2021/06/15 11:07:34;;;;;;;11.10;5.40;;;24.20;99.90;;;;;;5051848;28;20291;-67
2021/06/15 11:10:01;;;;;;;8.60;4.97;;;23.90;99.90;;;;;;5051671;28;20197;-66
2021/06/15 11:13:15;;;;;;;7.60;4.53;;;23.80;99.90;;;;;;5051358;28;20669;-68
2021/06/15 11:15:59;;;;;;;5.77;2.97;;;23.60;99.90;;;;;;5050993;28;20218;-70
2021/06/15 11:18:26;;;;;;;7.23;3.57;;;23.90;99.90;;;;;;5051626;28;20649;-70
2021/06/15 11:20:52;;;;;;;5.37;3.73;;;23.90;99.90;;;;;;5051326;28;20225;-68
2021/06/15 11:23:26;;;;;;;7.67;4.07;;;23.60;99.90;;;;;;5051071;28;20674;-68
2021/06/15 11:25:55;;;;;;;5.33;3.87;;;23.70;99.90;;;;;;5051008;28;20205;-68
2021/06/15 11:28:42;;;;;;;6.10;3.53;;;23.60;99.90;;;;;;5051175;28;20283;-69
2021/06/15 11:31:34;;;;;;;4.07;2.80;;;23.80;99.90;;;;;;5051333;28;20213;-69
2021/06/15 11:34:26;;;;;;;4.90;3.10;;;24.20;99.90;;;;;;5051374;28;20283;-70
2021/06/15 11:36:55;;;;;;;5.30;2.93;;;24.30;99.90;;;;;;5051274;28;20230;-68
2021/06/15 11:39:34;;;;;;;5.73;3.00;;;24.60;99.90;;;;;;5051299;28;20207;-69
2021/06/15 11:42:17;;;;;;;7.33;3.50;;;24.60;99.90;;;;;;5051334;28;20271;-69
2021/06/15 11:44:56;;;;;;;5.20;3.30;;;24.00;99.90;;;;;;5050646;28;20666;-69
2021/06/15 11:47:35;;;;;;;9.00;2.93;;;24.10;99.90;;;;;;5051489;28;20225;-69
2021/06/15 11:50:08;;;;;;;7.43;3.03;;;24.40;99.90;;;;;;5052043;28;20205;-68
2021/06/15 11:52:39;;;;;;;4.00;2.70;;;24.30;99.90;;;;;;5050986;28;20641;-70
2021/06/15 11:55:08;;;;;;;4.60;3.27;;;24.40;99.90;;;;;;5050730;28;20202;-68
2021/06/15 11:57:35;;;;;;;6.07;2.90;;;24.10;99.90;;;;;;5050973;28;20280;-67
2021/06/15 12:00:04;;;;;;;5.80;2.80;;;24.20;99.90;;;;;;5051111;28;20262;-68
2021/06/15 12:02:32;;;;;;;4.93;2.80;;;24.40;99.90;;;;;;5050817;28;20620;-68
2021/06/15 12:05:08;;;;;;;5.57;2.93;;;24.80;99.90;;;;;;5052987;28;20213;-69
2021/06/15 12:07:34;;;;;;;6.63;3.00;;;25.00;99.90;;;;;;5054035;28;20308;-68
2021/06/15 12:10:07;;;;;;;4.20;2.90;;;24.50;99.90;;;;;;5054810;28;20213;-68
2021/06/15 12:13:15;;;;;;;2.70;2.30;;;24.50;99.90;;;;;;5054449;28;20635;-68
2021/06/15 12:16:00;;;;;;;4.27;2.27;;;24.60;99.90;;;;;;5053963;28;20213;-69
2021/06/15 12:18:34;;;;;;;4.57;3.23;;;24.70;99.90;;;;;;5054701;28;20226;-68
2021/06/15 12:21:03;;;;;;;3.73;2.20;;;24.50;99.90;;;;;;5054340;28;20209;-68
2021/06/15 12:23:33;;;;;;;6.13;2.27;;;24.70;99.90;;;;;;5054440;28;20630;-67
2021/06/15 12:26:22;;;;;;;3.50;2.00;;;24.80;99.90;;;;;;5053908;28;20206;-67
2021/06/15 12:28:51;;;;;;;6.33;2.50;;;24.80;99.90;;;;;;5054352;28;20232;-68
2021/06/15 12:31:21;;;;;;;3.33;1.90;;;24.40;99.90;;;;;;5053644;28;20213;-68
2021/06/15 12:33:51;;;;;;;8.53;2.20;;;24.20;99.90;;;;;;5054178;28;20288;-69
2021/06/15 12:36:20;;;;;;;8.50;2.37;;;24.40;99.90;;;;;;5053510;28;20729;-68
2021/06/15 12:38:48;;;;;;;3.40;2.20;;;24.30;99.90;;;;;;5053826;28;20271;-68
2021/06/15 12:41:18;;;;;;;5.33;2.30;;;24.40;99.90;;;;;;5053633;28;20222;-68
2021/06/15 12:43:45;;;;;;;4.77;2.30;;;24.50;99.90;;;;;;5053840;28;20685;-67
2021/06/15 12:46:15;;;;;;;7.40;2.30;;;24.70;99.90;;;;;;5053621;28;20593;-66
2021/06/15 12:48:52;;;;;;;6.23;2.03;;;24.90;99.90;;;;;;5053764;28;20206;-67
2021/06/15 12:51:22;;;;;;;3.23;1.90;;;25.30;99.90;;;;;;5053593;28;20898;-66
2021/06/15 12:53:49;;;;;;;2.93;1.80;;;25.20;99.90;;;;;;5054057;28;20206;-67
2021/06/15 12:56:19;;;;;;;2.90;1.67;;;25.10;99.90;;;;;;5053513;28;20662;-65